Tourist Ferry Boat 3 — IQAQ — position and weather

sailwx.info

Track history (hours):
 
Tides and Currents Weather Stations Pressure Air Temp Water Temp Dewpoint Dewpoint Depression Visibility Wind Speed Wind Dir Waves Ship Positions

Tourist Ferry Boat 3

Last reported at 2017-Aug-21 11:06 UTC. Time now 2017-Aug-22 01:26 UTC.
Position N 40°47' E 014°05'.

Length 58 m; draft 1.8 m.

Type: Ship. MMSI: 247048900.

Date/timePositionNaut miles runAvg speedWind from/ knotsBaromVisibWave heightAir tempDewpointWater temp
2017-Aug-21 11:06N 40°47' E 014°05'3 0.6
2017-Aug-21 05:16N 40°49' E 014°07'0 0.0
2017-Aug-20 13:25N 40°49' E 014°07'0 0.0
2017-Aug-20 13:00N 40°49' E 014°07'2 2.3
2017-Aug-20 12:00N 40°47' E 014°06'4 7.3
2017-Aug-20 11:30N 40°46' E 014°02'3 6.5
2017-Aug-20 11:00N 40°47' E 014°06'0 0.1
2017-Aug-20 06:02N 40°46' E 014°05'3 3.7
2017-Aug-20 05:09N 40°49' E 014°07'0 0.0
2017-Aug-20 05:00N 40°49' E 014°07'0 0.0
2017-Aug-20 04:30N 40°49' E 014°07'0 0.0
2017-Aug-20 04:00N 40°49' E 014°07'0 0.0
2017-Aug-20 03:30N 40°49' E 014°07'0 0.0
2017-Aug-20 03:00N 40°49' E 014°07'0 0.0
2017-Aug-20 02:30N 40°49' E 014°07'0 0.0
2017-Aug-20 02:00N 40°49' E 014°07'0 0.0
2017-Aug-20 01:30N 40°49' E 014°07'0 0.0
2017-Aug-20 01:00N 40°49' E 014°07'0 0.0
2017-Aug-20 00:30N 40°49' E 014°07'0 0.0
2017-Aug-20 00:00N 40°49' E 014°07'0 0.0
2017-Aug-19 23:30N 40°49' E 014°07'0 0.0
2017-Aug-19 23:00N 40°49' E 014°07'0 0.0
2017-Aug-19 22:30N 40°49' E 014°07'0 0.0
2017-Aug-19 22:00N 40°49' E 014°07'0 0.0
2017-Aug-19 21:30N 40°49' E 014°07'0 0.0
2017-Aug-19 21:00N 40°49' E 014°07'0 0.0
2017-Aug-19 20:30N 40°49' E 014°07'0 0.0
2017-Aug-19 19:38N 40°49' E 014°07'0 0.0
2017-Aug-19 19:30N 40°49' E 014°07'0 0.0
2017-Aug-19 19:00N 40°49' E 014°07'0 0.0
2017-Aug-19 18:02N 40°49' E 014°07'0 0.0
2017-Aug-19 18:00N 40°49' E 014°07'0 0.0
2017-Aug-19 17:30N 40°49' E 014°07'0 0.0
2017-Aug-19 15:45N 40°49' E 014°07'0 0.0
2017-Aug-19 15:29N 40°49' E 014°07'0 0.3
2017-Aug-19 13:56N 40°49' E 014°07'0 0.8
2017-Aug-19 13:24N 40°49' E 014°07'0 0.0
2017-Aug-19 13:00N 40°49' E 014°07'0 0.1
2017-Aug-19 12:16N 40°49' E 014°07'4 8.7
2017-Aug-19 11:51N 40°46' E 014°04'2 3.8
2017-Aug-19 11:23N 40°46' E 014°02'5 8.3
2017-Aug-19 10:47N 40°49' E 014°07'0 0.1
2017-Aug-19 09:58N 40°49' E 014°07'4 4.2
2017-Aug-19 08:59N 40°46' E 014°03'4 8.3
2017-Aug-19 08:30N 40°49' E 014°06'0 0.4
2017-Aug-19 07:26N 40°49' E 014°07'0 0.0
2017-Aug-19 04:58N 40°49' E 014°07'0 0.0
2017-Aug-19 04:30N 40°49' E 014°07'0 0.0
2017-Aug-19 03:58N 40°49' E 014°07'0 0.0
2017-Aug-19 03:30N 40°49' E 014°07'0 0.0
2017-Aug-19 03:00N 40°49' E 014°07'0 0.0
2017-Aug-19 02:30N 40°49' E 014°07'0 0.0
2017-Aug-19 02:00N 40°49' E 014°07'0 0.0
2017-Aug-19 01:30N 40°49' E 014°07'0 0.0
2017-Aug-19 01:00N 40°49' E 014°07'0 0.0
2017-Aug-19 00:30N 40°49' E 014°07'0 0.0
2017-Aug-19 00:00N 40°49' E 014°07'0 0.0
2017-Aug-18 23:30N 40°49' E 014°07'0 0.0
2017-Aug-18 23:00N 40°49' E 014°07'0 0.0
2017-Aug-18 22:30N 40°49' E 014°07'0 0.0
2017-Aug-18 22:00N 40°49' E 014°07'0 0.0
2017-Aug-18 21:30N 40°49' E 014°07'0 0.0
2017-Aug-18 21:00N 40°49' E 014°07'0 0.0
2017-Aug-18 20:30N 40°49' E 014°07'0 0.0
2017-Aug-18 19:58N 40°49' E 014°07'0 0.0
2017-Aug-18 19:30N 40°49' E 014°07'0 0.0
2017-Aug-18 19:00N 40°49' E 014°07'0 0.0
2017-Aug-18 16:04N 40°49' E 014°07'0 0.0
2017-Aug-18 15:59N 40°49' E 014°07'0 0.0
2017-Aug-18 15:30N 40°49' E 014°07'3 6.7
2017-Aug-18 15:00N 40°46' E 014°05'3 2.8
2017-Aug-18 13:59N 40°49' E 014°06'1 0.5
2017-Aug-18 12:42N 40°49' E 014°07'0 0.0
2017-Aug-18 12:12N 40°49' E 014°07'2 7.9
2017-Aug-18 11:59N 40°48' E 014°06'4 8.1
2017-Aug-18 11:30N 40°46' E 014°02'3 6.6
2017-Aug-18 11:00N 40°47' E 014°06'3 5.4
2017-Aug-18 10:30N 40°49' E 014°07'0 0.2
2017-Aug-18 10:00N 40°49' E 014°07'4 8.6
2017-Aug-18 09:30N 40°46' E 014°03'1 1.1
2017-Aug-18 08:57N 40°46' E 014°04'4 8.5
2017-Aug-18 08:30N 40°49' E 014°07'0 0.3
2017-Aug-18 08:00N 40°49' E 014°07'0 0.0
2017-Aug-18 07:30N 40°49' E 014°07'3 5.6
2017-Aug-18 07:00N 40°47' E 014°06'3 4.9
2017-Aug-18 06:18N 40°46' E 014°02'3 9.4
2017-Aug-18 06:00N 40°46' E 014°05'3 5.1
2017-Aug-18 05:22N 40°49' E 014°07'2 5.4
2017-Aug-18 04:58N 40°47' E 014°06'3 6.1
2017-Aug-18 04:24N 40°46' E 014°02'4 9.1
2017-Aug-18 04:00N 40°48' E 014°06'2 1.7
2017-Aug-18 02:57N 40°49' E 014°07'0 0.0
2017-Aug-18 02:30N 40°49' E 014°07'0 0.0
2017-Aug-18 01:59N 40°49' E 014°07'0 0.0
2017-Aug-18 01:30N 40°49' E 014°07'0 0.0
2017-Aug-18 01:00N 40°49' E 014°07'0 0.0
2017-Aug-18 00:30N 40°49' E 014°07'0 0.0
2017-Aug-18 00:00N 40°49' E 014°07'0 0.0
2017-Aug-17 23:28N 40°49' E 014°07'0 0.0
2017-Aug-17 22:30N 40°49' E 014°07'0 0.0
2017-Aug-17 20:03N 40°49' E 014°07'0 0.0
2017-Aug-17 20:00N 40°49' E 014°07'0 0.0
2017-Aug-17 19:29N 40°49' E 014°07'0 0.0
2017-Aug-17 19:00N 40°49' E 014°07'0 0.0
2017-Aug-17 18:24N 40°49' E 014°07'0 0.0
2017-Aug-17 18:00N 40°49' E 014°07'0 0.0
2017-Aug-17 16:12N 40°49' E 014°07'0 0.0
2017-Aug-17 15:57N 40°49' E 014°07'0 0.0
2017-Aug-17 15:30N 40°49' E 014°07'3 6.5
2017-Aug-17 15:00N 40°46' E 014°05'3 5.7
2017-Aug-17 14:30N 40°46' E 014°02'0 0.1
2017-Aug-17 11:27N 40°46' E 014°02'4 7.8
2017-Aug-17 10:57N 40°48' E 014°06'2 0.8
2017-Aug-17 08:34N 40°49' E 014°07'0 2.2
2017-Aug-17 08:30N 40°49' E 014°07'4 1.1
2017-Aug-17 04:49N 40°46' E 014°04'4 3.1
2017-Aug-17 03:31N 40°49' E 014°07'0 0.0
2017-Aug-17 03:30N 40°49' E 014°07'0 0.0
2017-Aug-17 03:00N 40°49' E 014°07'0 0.0
2017-Aug-17 02:20N 40°49' E 014°07'0 0.0
2017-Aug-17 02:00N 40°49' E 014°07'0 0.0
2017-Aug-17 01:30N 40°49' E 014°07'0 0.0
2017-Aug-16 23:12N 40°49' E 014°07'0 0.0
2017-Aug-16 23:00N 40°49' E 014°07'0 0.0
2017-Aug-16 22:23N 40°49' E 014°07'0 0.0
2017-Aug-16 21:28N 40°49' E 014°07'0 0.0
2017-Aug-16 15:55N 40°49' E 014°07'1 1.6
2017-Aug-16 15:16N 40°49' E 014°06'1 0.1
2017-Aug-16 08:15N 40°49' E 014°07'0 0.0
2017-Aug-16 08:00N 40°49' E 014°07'1 0.6
2017-Aug-16 05:47N 40°48' E 014°06'1 3.2
2017-Aug-16 05:24N 40°49' E 014°07'4 6.8
2017-Aug-16 04:52N 40°46' E 014°05'4 0.7
2017-Aug-15 23:14N 40°49' E 014°07'0 0.0
2017-Aug-15 23:00N 40°49' E 014°07'0 0.0
2017-Aug-15 21:05N 40°49' E 014°07'0 0.0
2017-Aug-15 21:00N 40°49' E 014°07'0 0.0
2017-Aug-15 20:19N 40°49' E 014°07'0 0.0
2017-Aug-15 20:00N 40°49' E 014°07'1 0.1
2017-Aug-15 12:06N 40°49' E 014°06'110.3
2017-Aug-15 12:00N 40°48' E 014°06'1 1.0
2017-Aug-15 10:35N 40°49' E 014°07'0 0.1
2017-Aug-15 10:30N 40°49' E 014°07'0 0.0
2017-Aug-15 04:50N 40°49' E 014°07'0 0.0
2017-Aug-15 04:29N 40°49' E 014°07'0 0.0
2017-Aug-15 03:59N 40°49' E 014°07'0 0.0
2017-Aug-14 20:30N 40°49' E 014°07'0 0.0
2017-Aug-14 19:45N 40°49' E 014°07'0 0.0
2017-Aug-14 19:30N 40°49' E 014°07'0 0.0
2017-Aug-13 22:19N 40°49' E 014°07'1 0.0
2017-Aug-12 11:56N 40°48' E 014°06'4 8.9
2017-Aug-12 11:30N 40°46' E 014°02'5 0.3
2017-Aug-11 18:16N 40°49' E 014°07'0 0.0
2017-Aug-11 18:00N 40°49' E 014°07'0 0.0
2017-Aug-11 17:30N 40°49' E 014°07'  
Track history (hours):
 
Tides and Currents Weather Stations Pressure Air Temp Water Temp Dewpoint Dewpoint Depression Visibility Wind Speed Wind Dir Waves Ship Positions

Tourist Ferry Boat 3

Last reported at 2017-Aug-21 11:06 UTC. Time now 2017-Aug-22 01:26 UTC.
Position N 40°47' E 014°05'.

Length 58 m; draft 1.8 m.

Type: Ship. MMSI: 247048900.

Date/timePositionNaut miles runAvg speedWind from/ knotsBaromVisibWave heightAir tempDewpointWater temp
2017-Aug-21 11:06N 40°47' E 014°05'3 0.6
2017-Aug-21 05:16N 40°49' E 014°07'0 0.0
2017-Aug-20 13:25N 40°49' E 014°07'0 0.0
2017-Aug-20 13:00N 40°49' E 014°07'2 2.3
2017-Aug-20 12:00N 40°47' E 014°06'4 7.3
2017-Aug-20 11:30N 40°46' E 014°02'3 6.5
2017-Aug-20 11:00N 40°47' E 014°06'0 0.1
2017-Aug-20 06:02N 40°46' E 014°05'3 3.7
2017-Aug-20 05:09N 40°49' E 014°07'0 0.0
2017-Aug-20 05:00N 40°49' E 014°07'0 0.0
2017-Aug-20 04:30N 40°49' E 014°07'0 0.0
2017-Aug-20 04:00N 40°49' E 014°07'0 0.0
2017-Aug-20 03:30N 40°49' E 014°07'0 0.0
2017-Aug-20 03:00N 40°49' E 014°07'0 0.0
2017-Aug-20 02:30N 40°49' E 014°07'0 0.0
2017-Aug-20 02:00N 40°49' E 014°07'0 0.0
2017-Aug-20 01:30N 40°49' E 014°07'0 0.0
2017-Aug-20 01:00N 40°49' E 014°07'0 0.0
2017-Aug-20 00:30N 40°49' E 014°07'0 0.0
2017-Aug-20 00:00N 40°49' E 014°07'0 0.0
2017-Aug-19 23:30N 40°49' E 014°07'0 0.0
2017-Aug-19 23:00N 40°49' E 014°07'0 0.0
2017-Aug-19 22:30N 40°49' E 014°07'0 0.0
2017-Aug-19 22:00N 40°49' E 014°07'0 0.0
2017-Aug-19 21:30N 40°49' E 014°07'0 0.0
2017-Aug-19 21:00N 40°49' E 014°07'0 0.0
2017-Aug-19 20:30N 40°49' E 014°07'0 0.0
2017-Aug-19 19:38N 40°49' E 014°07'0 0.0
2017-Aug-19 19:30N 40°49' E 014°07'0 0.0
2017-Aug-19 19:00N 40°49' E 014°07'0 0.0
2017-Aug-19 18:02N 40°49' E 014°07'0 0.0
2017-Aug-19 18:00N 40°49' E 014°07'0 0.0
2017-Aug-19 17:30N 40°49' E 014°07'0 0.0
2017-Aug-19 15:45N 40°49' E 014°07'0 0.0
2017-Aug-19 15:29N 40°49' E 014°07'0 0.3
2017-Aug-19 13:56N 40°49' E 014°07'0 0.8
2017-Aug-19 13:24N 40°49' E 014°07'0 0.0
2017-Aug-19 13:00N 40°49' E 014°07'0 0.1
2017-Aug-19 12:16N 40°49' E 014°07'4 8.7
2017-Aug-19 11:51N 40°46' E 014°04'2 3.8
2017-Aug-19 11:23N 40°46' E 014°02'5 8.3
2017-Aug-19 10:47N 40°49' E 014°07'0 0.1
2017-Aug-19 09:58N 40°49' E 014°07'4 4.2
2017-Aug-19 08:59N 40°46' E 014°03'4 8.3
2017-Aug-19 08:30N 40°49' E 014°06'0 0.4
2017-Aug-19 07:26N 40°49' E 014°07'0 0.0
2017-Aug-19 04:58N 40°49' E 014°07'0 0.0
2017-Aug-19 04:30N 40°49' E 014°07'0 0.0
2017-Aug-19 03:58N 40°49' E 014°07'0 0.0
2017-Aug-19 03:30N 40°49' E 014°07'0 0.0
2017-Aug-19 03:00N 40°49' E 014°07'0 0.0
2017-Aug-19 02:30N 40°49' E 014°07'0 0.0
2017-Aug-19 02:00N 40°49' E 014°07'0 0.0
2017-Aug-19 01:30N 40°49' E 014°07'0 0.0
2017-Aug-19 01:00N 40°49' E 014°07'0 0.0
2017-Aug-19 00:30N 40°49' E 014°07'0 0.0
2017-Aug-19 00:00N 40°49' E 014°07'0 0.0
2017-Aug-18 23:30N 40°49' E 014°07'0 0.0
2017-Aug-18 23:00N 40°49' E 014°07'0 0.0
2017-Aug-18 22:30N 40°49' E 014°07'0 0.0
2017-Aug-18 22:00N 40°49' E 014°07'0 0.0
2017-Aug-18 21:30N 40°49' E 014°07'0 0.0
2017-Aug-18 21:00N 40°49' E 014°07'0 0.0
2017-Aug-18 20:30N 40°49' E 014°07'0 0.0
2017-Aug-18 19:58N 40°49' E 014°07'0 0.0
2017-Aug-18 19:30N 40°49' E 014°07'0 0.0
2017-Aug-18 19:00N 40°49' E 014°07'0 0.0
2017-Aug-18 16:04N 40°49' E 014°07'0 0.0
2017-Aug-18 15:59N 40°49' E 014°07'0 0.0
2017-Aug-18 15:30N 40°49' E 014°07'3 6.7
2017-Aug-18 15:00N 40°46' E 014°05'3 2.8
2017-Aug-18 13:59N 40°49' E 014°06'1 0.5
2017-Aug-18 12:42N 40°49' E 014°07'0 0.0
2017-Aug-18 12:12N 40°49' E 014°07'2 7.9
2017-Aug-18 11:59N 40°48' E 014°06'4 8.1
2017-Aug-18 11:30N 40°46' E 014°02'3 6.6
2017-Aug-18 11:00N 40°47' E 014°06'3 5.4
2017-Aug-18 10:30N 40°49' E 014°07'0 0.2
2017-Aug-18 10:00N 40°49' E 014°07'4 8.6
2017-Aug-18 09:30N 40°46' E 014°03'1 1.1
2017-Aug-18 08:57N 40°46' E 014°04'4 8.5
2017-Aug-18 08:30N 40°49' E 014°07'0 0.3
2017-Aug-18 08:00N 40°49' E 014°07'0 0.0
2017-Aug-18 07:30N 40°49' E 014°07'3 5.6
2017-Aug-18 07:00N 40°47' E 014°06'3 4.9
2017-Aug-18 06:18N 40°46' E 014°02'3 9.4
2017-Aug-18 06:00N 40°46' E 014°05'3 5.1
2017-Aug-18 05:22N 40°49' E 014°07'2 5.4
2017-Aug-18 04:58N 40°47' E 014°06'3 6.1
2017-Aug-18 04:24N 40°46' E 014°02'4 9.1
2017-Aug-18 04:00N 40°48' E 014°06'2 1.7
2017-Aug-18 02:57N 40°49' E 014°07'0 0.0
2017-Aug-18 02:30N 40°49' E 014°07'0 0.0
2017-Aug-18 01:59N 40°49' E 014°07'0 0.0
2017-Aug-18 01:30N 40°49' E 014°07'0 0.0
2017-Aug-18 01:00N 40°49' E 014°07'0 0.0
2017-Aug-18 00:30N 40°49' E 014°07'0 0.0
2017-Aug-18 00:00N 40°49' E 014°07'0 0.0
2017-Aug-17 23:28N 40°49' E 014°07'0 0.0
2017-Aug-17 22:30N 40°49' E 014°07'0 0.0
2017-Aug-17 20:03N 40°49' E 014°07'0 0.0
2017-Aug-17 20:00N 40°49' E 014°07'0 0.0
2017-Aug-17 19:29N 40°49' E 014°07'0 0.0
2017-Aug-17 19:00N 40°49' E 014°07'0 0.0
2017-Aug-17 18:24N 40°49' E 014°07'0 0.0
2017-Aug-17 18:00N 40°49' E 014°07'0 0.0
2017-Aug-17 16:12N 40°49' E 014°07'0 0.0
2017-Aug-17 15:57N 40°49' E 014°07'0 0.0
2017-Aug-17 15:30N 40°49' E 014°07'3 6.5
2017-Aug-17 15:00N 40°46' E 014°05'3 5.7
2017-Aug-17 14:30N 40°46' E 014°02'0 0.1
2017-Aug-17 11:27N 40°46' E 014°02'4 7.8
2017-Aug-17 10:57N 40°48' E 014°06'2 0.8
2017-Aug-17 08:34N 40°49' E 014°07'0 2.2
2017-Aug-17 08:30N 40°49' E 014°07'4 1.1
2017-Aug-17 04:49N 40°46' E 014°04'4 3.1
2017-Aug-17 03:31N 40°49' E 014°07'0 0.0
2017-Aug-17 03:30N 40°49' E 014°07'0 0.0
2017-Aug-17 03:00N 40°49' E 014°07'0 0.0
2017-Aug-17 02:20N 40°49' E 014°07'0 0.0
2017-Aug-17 02:00N 40°49' E 014°07'0 0.0
2017-Aug-17 01:30N 40°49' E 014°07'0 0.0
2017-Aug-16 23:12N 40°49' E 014°07'0 0.0
2017-Aug-16 23:00N 40°49' E 014°07'0 0.0
2017-Aug-16 22:23N 40°49' E 014°07'0 0.0
2017-Aug-16 21:28N 40°49' E 014°07'0 0.0
2017-Aug-16 15:55N 40°49' E 014°07'1 1.6
2017-Aug-16 15:16N 40°49' E 014°06'1 0.1
2017-Aug-16 08:15N 40°49' E 014°07'0 0.0
2017-Aug-16 08:00N 40°49' E 014°07'1 0.6
2017-Aug-16 05:47N 40°48' E 014°06'1 3.2
2017-Aug-16 05:24N 40°49' E 014°07'4 6.8
2017-Aug-16 04:52N 40°46' E 014°05'4 0.7
2017-Aug-15 23:14N 40°49' E 014°07'0 0.0
2017-Aug-15 23:00N 40°49' E 014°07'0 0.0
2017-Aug-15 21:05N 40°49' E 014°07'0 0.0
2017-Aug-15 21:00N 40°49' E 014°07'0 0.0
2017-Aug-15 20:19N 40°49' E 014°07'0 0.0
2017-Aug-15 20:00N 40°49' E 014°07'1 0.1
2017-Aug-15 12:06N 40°49' E 014°06'110.3
2017-Aug-15 12:00N 40°48' E 014°06'1 1.0
2017-Aug-15 10:35N 40°49' E 014°07'0 0.1
2017-Aug-15 10:30N 40°49' E 014°07'0 0.0
2017-Aug-15 04:50N 40°49' E 014°07'0 0.0
2017-Aug-15 04:29N 40°49' E 014°07'0 0.0
2017-Aug-15 03:59N 40°49' E 014°07'0 0.0
2017-Aug-14 20:30N 40°49' E 014°07'0 0.0
2017-Aug-14 19:45N 40°49' E 014°07'0 0.0
2017-Aug-14 19:30N 40°49' E 014°07'0 0.0
2017-Aug-13 22:19N 40°49' E 014°07'1 0.0
2017-Aug-12 11:56N 40°48' E 014°06'4 8.9
2017-Aug-12 11:30N 40°46' E 014°02'5 0.3
2017-Aug-11 18:16N 40°49' E 014°07'0 0.0
2017-Aug-11 18:00N 40°49' E 014°07'0 0.0
2017-Aug-11 17:30N 40°49' E 014°07'  

Dump ship's entire track history